Time;durP1;ratioP1;P1;durP2;ratioP2;P2;SDS_P1;SDS_P2;PMS_P1;PMS_P2;Temp;Humidity;BMP_temperature;BMP_pressure;BME280_temperature;BME280_humidity;BME280_pressure;Samples;Min_cycle;Max_cycle;Signal;HPM_P1;HPM_P2
2023/03/29 00:00:18;;;;;;;0.00;0.00;;;;;;;;;;1731259;28;20203;-59
2023/03/29 00:01:09;;;;;;;0.00;0.00;;;;;;;;;;1732722;28;20288;-58
2023/03/29 00:02:00;;;;;;;0.00;0.00;;;;;;;;;;1734197;28;20290;-60
2023/03/29 00:02:52;;;;;;;0.00;0.00;;;;;;;;;;1732279;28;20326;-60
2023/03/29 00:03:44;;;;;;;0.00;0.00;;;;;;;;;;1732361;28;20261;-60
2023/03/29 00:04:35;;;;;;;0.00;0.00;;;;;;;;;;1732364;28;20687;-60
2023/03/29 00:05:27;;;;;;;0.00;0.00;;;;;;;;;;1730189;28;20219;-59
2023/03/29 00:06:21;;;;;;;0.00;0.00;;;;;;;;;;1734546;28;20682;-60
2023/03/29 00:07:13;;;;;;;0.00;0.00;;;;;;;;;;1738889;28;20200;-59
2023/03/29 00:08:06;;;;;;;0.03;0.03;;;;;;;;;;1733081;28;20235;-60
2023/03/29 00:08:58;;;;;;;0.00;0.00;;;;;;;;;;1732898;28;20212;-60
2023/03/29 00:09:49;;;;;;;0.00;0.00;;;;;;;;;;1732365;28;20216;-60
2023/03/29 00:10:41;;;;;;;0.00;0.00;;;;;;;;;;1730359;28;20595;-60
2023/03/29 00:11:32;;;;;;;0.00;0.00;;;;;;;;;;1733149;28;20207;-58
2023/03/29 00:12:25;;;;;;;0.00;0.00;;;;;;;;;;1732079;28;20224;-59
2023/03/29 00:13:16;;;;;;;0.00;0.00;;;;;;;;;;1733262;28;20322;-59
2023/03/29 00:14:08;;;;;;;0.00;0.00;;;;;;;;;;1732050;28;20207;-60
2023/03/29 00:14:59;;;;;;;0.00;0.00;;;;;;;;;;1732842;28;20270;-60
2023/03/29 00:15:51;;;;;;;0.00;0.00;;;;;;;;;;1730029;28;20234;-60
2023/03/29 00:16:43;;;;;;;0.08;0.08;;;;;;;;;;1733145;28;20216;-59
2023/03/29 00:17:35;;;;;;;0.00;0.00;;;;;;;;;;1733603;28;20199;-60
2023/03/29 00:18:26;;;;;;;0.00;0.00;;;;;;;;;;1733591;28;20207;-60
2023/03/29 00:19:18;;;;;;;0.00;0.00;;;;;;;;;;1739781;28;20290;-60
2023/03/29 00:20:11;;;;;;;0.00;0.00;;;;;;;;;;1732660;28;20344;-59
2023/03/29 00:21:03;;;;;;;0.00;0.00;;;;;;;;;;1723694;28;20252;-60
2023/03/29 00:21:54;;;;;;;0.00;0.00;;;;;;;;;;1728623;28;20238;-59
2023/03/29 00:22:46;;;;;;;0.00;0.00;;;;;;;;;;1735904;28;20261;-60
2023/03/29 00:23:38;;;;;;;0.00;0.00;;;;;;;;;;1733526;28;20205;-59
2023/03/29 00:24:30;;;;;;;0.00;0.00;;;;;;;;;;1730934;28;20212;-59
2023/03/29 00:25:21;;;;;;;0.00;0.00;;;;;;;;;;1729399;28;20357;-58
2023/03/29 00:26:13;;;;;;;0.00;0.00;;;;;;;;;;1731044;28;20606;-59
2023/03/29 00:27:04;;;;;;;0.00;0.00;;;;;;;;;;1725625;28;20212;-57
2023/03/29 00:27:56;;;;;;;0.00;0.00;;;;;;;;;;1725623;28;20209;-59
2023/03/29 00:28:48;;;;;;;0.00;0.00;;;;;;;;;;1726091;28;20213;-59
2023/03/29 00:29:40;;;;;;;0.20;0.20;;;;;;;;;;1725317;28;20197;-59
2023/03/29 00:30:31;;;;;;;0.00;0.00;;;;;;;;;;1726381;28;20299;-59
2023/03/29 00:31:23;;;;;;;0.00;0.00;;;;;;;;;;1725686;28;20258;-59
2023/03/29 00:32:14;;;;;;;0.00;0.00;;;;;;;;;;1731475;28;20208;-59
2023/03/29 00:33:07;;;;;;;0.00;0.00;;;;;;;;;;1726033;28;20204;-59
2023/03/29 00:33:58;;;;;;;0.00;0.00;;;;;;;;;;1726231;28;20213;-59
2023/03/29 00:34:50;;;;;;;0.00;0.00;;;;;;;;;;1725518;28;20228;-59
2023/03/29 00:35:41;;;;;;;0.00;0.00;;;;;;;;;;1723124;28;20247;-59
2023/03/29 00:36:33;;;;;;;0.00;0.00;;;;;;;;;;1726485;28;20273;-58
2023/03/29 00:37:25;;;;;;;0.00;0.00;;;;;;;;;;1730513;28;20216;-58
2023/03/29 00:38:18;;;;;;;0.00;0.00;;;;;;;;;;1726227;28;20205;-60
2023/03/29 00:39:11;;;;;;;0.00;0.00;;;;;;;;;;1725273;28;20285;-60
2023/03/29 00:40:07;;;;;;;0.00;0.00;;;;;;;;;;1726561;28;20223;-59
2023/03/29 00:40:58;;;;;;;0.00;0.00;;;;;;;;;;1725161;28;20237;-59
2023/03/29 00:41:50;;;;;;;0.00;0.00;;;;;;;;;;1728286;28;20204;-59
2023/03/29 00:42:43;;;;;;;0.03;0.03;;;;;;;;;;1730955;28;20247;-59
2023/03/29 00:43:50;;;;;;;0.00;0.00;;;;;;;;;;1729455;28;20239;-59
2023/03/29 00:44:55;;;;;;;0.00;0.00;;;;;;;;;;1725618;28;20213;-59
2023/03/29 00:45:47;;;;;;;0.00;0.00;;;;;;;;;;1726466;28;20255;-59
2023/03/29 00:46:39;;;;;;;0.00;0.00;;;;;;;;;;1729159;28;20212;-59
2023/03/29 00:47:33;;;;;;;0.00;0.00;;;;;;;;;;1725217;28;20200;-59
2023/03/29 00:48:26;;;;;;;0.00;0.00;;;;;;;;;;1725609;28;20676;-59
2023/03/29 00:49:18;;;;;;;0.10;0.10;;;;;;;;;;1732585;28;20208;-59
2023/03/29 00:50:12;;;;;;;0.00;0.00;;;;;;;;;;1725511;28;20738;-59
2023/03/29 00:51:06;;;;;;;0.10;0.10;;;;;;;;;;1741366;28;20601;-59
2023/03/29 00:51:57;;;;;;;0.00;0.00;;;;;;;;;;1739476;28;20211;-59
2023/03/29 00:52:52;;;;;;;0.00;0.00;;;;;;;;;;1739177;28;20686;-60
2023/03/29 00:53:47;;;;;;;0.00;0.00;;;;;;;;;;1741698;28;20210;-59
2023/03/29 00:54:42;;;;;;;0.00;0.00;;;;;;;;;;1739415;28;20326;-59
2023/03/29 00:55:36;;;;;;;0.00;0.00;;;;;;;;;;1736540;28;20318;-58
2023/03/29 00:56:29;;;;;;;0.00;0.00;;;;;;;;;;1739933;28;20242;-59
2023/03/29 00:57:22;;;;;;;0.10;0.10;;;;;;;;;;1739367;28;20226;-59
2023/03/29 00:58:16;;;;;;;0.00;0.00;;;;;;;;;;1739059;28;20211;-58
2023/03/29 00:59:09;;;;;;;0.00;0.00;;;;;;;;;;1738826;28;20211;-59
2023/03/29 01:00:04;;;;;;;0.00;0.00;;;;;;;;;;1738065;28;20199;-59
2023/03/29 01:00:57;;;;;;;0.10;0.10;;;;;;;;;;1737186;28;20227;-58
2023/03/29 01:01:53;;;;;;;0.00;0.00;;;;;;;;;;1739107;28;20207;-59
2023/03/29 01:02:49;;;;;;;0.00;0.00;;;;;;;;;;1738627;28;20262;-58
2023/03/29 01:03:45;;;;;;;0.00;0.00;;;;;;;;;;1741040;28;20643;-57
2023/03/29 01:04:39;;;;;;;0.00;0.00;;;;;;;;;;1744121;28;20195;-58
2023/03/29 01:05:32;;;;;;;0.00;0.00;;;;;;;;;;1736884;28;20227;-58
2023/03/29 01:06:27;;;;;;;0.00;0.00;;;;;;;;;;1739469;28;20214;-58
2023/03/29 01:07:21;;;;;;;0.00;0.00;;;;;;;;;;1739228;28;20718;-59
2023/03/29 01:08:16;;;;;;;0.00;0.00;;;;;;;;;;1739598;28;20741;-58
2023/03/29 01:09:11;;;;;;;0.00;0.00;;;;;;;;;;1739138;28;20215;-58
2023/03/29 01:10:09;;;;;;;0.00;0.00;;;;;;;;;;1739313;28;20212;-59
2023/03/29 01:11:02;;;;;;;0.08;0.08;;;;;;;;;;1737112;28;20611;-59
2023/03/29 01:11:56;;;;;;;0.00;0.00;;;;;;;;;;1739439;28;20246;-58
2023/03/29 01:12:48;;;;;;;0.00;0.00;;;;;;;;;;1739159;28;20650;-58
2023/03/29 01:13:42;;;;;;;0.00;0.00;;;;;;;;;;1738832;28;20223;-59
2023/03/29 01:14:35;;;;;;;0.00;0.00;;;;;;;;;;1738877;28;20302;-59
2023/03/29 01:15:28;;;;;;;0.00;0.00;;;;;;;;;;1736631;28;20489;-59
2023/03/29 01:16:19;;;;;;;0.00;0.00;;;;;;;;;;1745205;28;20194;-58
2023/03/29 01:17:11;;;;;;;0.03;0.03;;;;;;;;;;1739258;28;20235;-59
2023/03/29 01:18:02;;;;;;;0.00;0.00;;;;;;;;;;1742006;28;20218;-59
2023/03/29 01:18:57;;;;;;;0.00;0.00;;;;;;;;;;1739570;28;20274;-59
2023/03/29 01:19:50;;;;;;;0.00;0.00;;;;;;;;;;1739011;28;20574;-60
2023/03/29 01:20:54;;;;;;;0.00;0.00;;;;;;;;;;1740700;28;20230;-59
2023/03/29 01:21:48;;;;;;;0.10;0.10;;;;;;;;;;1739436;28;20200;-59
2023/03/29 01:22:46;;;;;;;0.00;0.00;;;;;;;;;;1738868;28;20251;-58
2023/03/29 01:23:49;;;;;;;0.17;0.17;;;;;;;;;;1740646;28;20714;-59
2023/03/29 01:24:49;;;;;;;0.00;0.00;;;;;;;;;;1743437;28;20270;-59
2023/03/29 01:25:46;;;;;;;0.00;0.00;;;;;;;;;;1737399;28;20235;-60
2023/03/29 01:26:43;;;;;;;0.00;0.00;;;;;;;;;;1739452;28;20737;-59
2023/03/29 01:27:47;;;;;;;0.00;0.00;;;;;;;;;;1738973;28;20253;-59
2023/03/29 01:28:42;;;;;;;0.00;0.00;;;;;;;;;;1741618;28;20707;-59
2023/03/29 01:29:34;;;;;;;0.00;0.00;;;;;;;;;;1738690;28;20260;-59
2023/03/29 01:30:29;;;;;;;0.00;0.00;;;;;;;;;;1736527;28;20233;-58
2023/03/29 01:31:23;;;;;;;0.00;0.00;;;;;;;;;;1739233;28;20666;-59
2023/03/29 01:32:17;;;;;;;0.00;0.00;;;;;;;;;;1738874;28;20258;-60
2023/03/29 01:33:10;;;;;;;0.00;0.00;;;;;;;;;;1742070;28;20267;-59
2023/03/29 01:34:04;;;;;;;0.00;0.00;;;;;;;;;;1739902;28;20203;-59
2023/03/29 01:34:57;;;;;;;0.00;0.00;;;;;;;;;;1738959;28;20215;-59
2023/03/29 01:35:53;;;;;;;0.05;0.05;;;;;;;;;;1737723;28;20260;-59
2023/03/29 01:36:48;;;;;;;0.00;0.00;;;;;;;;;;1742199;28;20219;-59
2023/03/29 01:37:44;;;;;;;0.00;0.00;;;;;;;;;;1738749;28;20250;-60
2023/03/29 01:38:38;;;;;;;0.00;0.00;;;;;;;;;;1742903;28;20264;-59
2023/03/29 01:39:33;;;;;;;0.00;0.00;;;;;;;;;;1744758;28;20297;-59
2023/03/29 01:40:26;;;;;;;0.00;0.00;;;;;;;;;;1737284;28;20206;-59
2023/03/29 01:41:19;;;;;;;0.00;0.00;;;;;;;;;;1739129;28;20202;-59
2023/03/29 01:42:14;;;;;;;0.05;0.05;;;;;;;;;;1740523;28;20223;-59
2023/03/29 01:43:12;;;;;;;0.00;0.00;;;;;;;;;;1742868;28;20665;-59
2023/03/29 01:44:05;;;;;;;0.15;0.15;;;;;;;;;;1740875;28;20225;-59
2023/03/29 01:45:01;;;;;;;0.10;0.10;;;;;;;;;;1739424;28;20278;-59
2023/03/29 01:45:57;;;;;;;0.00;0.00;;;;;;;;;;1741951;28;20581;-58
2023/03/29 01:46:52;;;;;;;0.00;0.00;;;;;;;;;;1743109;28;20199;-59
2023/03/29 01:47:46;;;;;;;0.00;0.00;;;;;;;;;;1739012;28;20248;-59
2023/03/29 01:48:42;;;;;;;0.00;0.00;;;;;;;;;;1741685;28;20200;-59
2023/03/29 01:49:36;;;;;;;0.00;0.00;;;;;;;;;;1738814;28;20228;-60
2023/03/29 01:50:36;;;;;;;0.05;0.05;;;;;;;;;;1737848;28;20230;-59
2023/03/29 01:51:30;;;;;;;0.00;0.00;;;;;;;;;;1738940;28;20188;-59
2023/03/29 01:52:25;;;;;;;0.00;0.00;;;;;;;;;;1739325;28;20774;-59
2023/03/29 01:53:19;;;;;;;0.00;0.00;;;;;;;;;;1739740;28;20581;-59
2023/03/29 01:54:13;;;;;;;0.00;0.00;;;;;;;;;;1738662;28;20647;-59
2023/03/29 01:55:06;;;;;;;0.00;0.00;;;;;;;;;;1739464;28;20272;-58
2023/03/29 01:56:00;;;;;;;0.00;0.00;;;;;;;;;;1736648;28;20298;-59
2023/03/29 01:56:51;;;;;;;0.00;0.00;;;;;;;;;;1739485;28;20214;-59
2023/03/29 01:57:44;;;;;;;0.00;0.00;;;;;;;;;;1738933;28;20237;-59
2023/03/29 01:58:38;;;;;;;0.00;0.00;;;;;;;;;;1740460;28;20242;-59
2023/03/29 01:59:32;;;;;;;0.00;0.00;;;;;;;;;;1738784;28;20227;-59
2023/03/29 02:00:26;;;;;;;0.00;0.00;;;;;;;;;;1739715;28;20207;-59
2023/03/29 02:01:20;;;;;;;0.10;0.10;;;;;;;;;;1739127;28;20200;-59
2023/03/29 02:02:13;;;;;;;0.00;0.00;;;;;;;;;;1738290;28;20629;-59
2023/03/29 02:03:07;;;;;;;0.00;0.00;;;;;;;;;;1739103;28;20218;-59
2023/03/29 02:04:01;;;;;;;0.00;0.00;;;;;;;;;;1738416;28;20264;-59
2023/03/29 02:04:54;;;;;;;0.00;0.00;;;;;;;;;;1743682;28;20226;-59
2023/03/29 02:05:46;;;;;;;0.00;0.00;;;;;;;;;;1736367;28;20626;-59
2023/03/29 02:06:38;;;;;;;0.00;0.00;;;;;;;;;;1742014;28;20195;-59
2023/03/29 02:07:31;;;;;;;0.00;0.00;;;;;;;;;;1738782;28;20577;-59
2023/03/29 02:08:23;;;;;;;0.03;0.03;;;;;;;;;;1740159;28;20211;-60
2023/03/29 02:09:14;;;;;;;0.00;0.00;;;;;;;;;;1740162;28;20345;-59
2023/03/29 02:10:07;;;;;;;0.00;0.00;;;;;;;;;;1741038;28;20207;-59
2023/03/29 02:10:58;;;;;;;0.00;0.00;;;;;;;;;;1738244;28;20292;-57
2023/03/29 02:11:51;;;;;;;0.00;0.00;;;;;;;;;;1743658;28;20203;-59
2023/03/29 02:12:43;;;;;;;0.00;0.00;;;;;;;;;;1739876;28;20272;-59
2023/03/29 02:13:35;;;;;;;0.00;0.00;;;;;;;;;;1740120;28;20660;-58
2023/03/29 02:14:28;;;;;;;0.00;0.00;;;;;;;;;;1739828;28;20434;-58
2023/03/29 02:15:22;;;;;;;0.00;0.00;;;;;;;;;;1737800;28;20207;-60
2023/03/29 02:16:13;;;;;;;0.00;0.00;;;;;;;;;;1741747;28;20207;-59
2023/03/29 02:17:18;;;;;;;0.00;0.00;;;;;;;;;;1741192;28;20856;-59
2023/03/29 02:18:10;;;;;;;0.00;0.00;;;;;;;;;;1740261;28;20211;-59
2023/03/29 02:19:02;;;;;;;0.10;0.10;;;;;;;;;;1739634;28;20290;-59
2023/03/29 02:19:54;;;;;;;0.00;0.00;;;;;;;;;;1747174;28;20214;-59
2023/03/29 02:20:47;;;;;;;0.00;0.00;;;;;;;;;;1739699;28;20780;-59
2023/03/29 02:21:40;;;;;;;0.00;0.00;;;;;;;;;;1741135;28;20203;-59
2023/03/29 02:22:38;;;;;;;0.10;0.10;;;;;;;;;;1739960;28;20643;-59
2023/03/29 02:23:32;;;;;;;0.00;0.00;;;;;;;;;;1739679;28;20208;-59
2023/03/29 02:24:25;;;;;;;0.00;0.00;;;;;;;;;;1744822;28;20203;-59
2023/03/29 02:25:16;;;;;;;0.00;0.00;;;;;;;;;;1737737;28;20234;-58
2023/03/29 02:26:08;;;;;;;0.10;0.10;;;;;;;;;;1743782;28;20621;-60
2023/03/29 02:27:00;;;;;;;0.00;0.00;;;;;;;;;;1742083;28;20203;-59
2023/03/29 02:27:52;;;;;;;0.00;0.00;;;;;;;;;;1739973;28;20258;-59
2023/03/29 02:28:43;;;;;;;0.00;0.00;;;;;;;;;;1740964;28;20257;-60
2023/03/29 02:29:36;;;;;;;0.10;0.10;;;;;;;;;;1740528;28;20507;-59
2023/03/29 02:30:30;;;;;;;0.00;0.00;;;;;;;;;;1739671;28;20711;-59
2023/03/29 02:31:24;;;;;;;0.05;0.05;;;;;;;;;;1743410;28;20203;-59
2023/03/29 02:32:18;;;;;;;0.00;0.00;;;;;;;;;;1741998;28;20247;-59
2023/03/29 02:33:12;;;;;;;0.00;0.00;;;;;;;;;;1740555;28;20902;-60
2023/03/29 02:34:06;;;;;;;0.10;0.10;;;;;;;;;;1741494;28;20711;-59
2023/03/29 02:35:00;;;;;;;0.00;0.00;;;;;;;;;;1742696;28;20265;-59
2023/03/29 02:35:55;;;;;;;0.00;0.00;;;;;;;;;;1740419;28;20242;-59
2023/03/29 02:36:49;;;;;;;0.10;0.10;;;;;;;;;;1742244;28;20555;-59
2023/03/29 02:37:42;;;;;;;0.00;0.00;;;;;;;;;;1740033;28;20204;-59
2023/03/29 02:38:34;;;;;;;0.10;0.10;;;;;;;;;;1741255;28;21258;-59
2023/03/29 02:39:27;;;;;;;0.10;0.10;;;;;;;;;;1744696;28;20210;-57
2023/03/29 02:40:19;;;;;;;0.00;0.00;;;;;;;;;;1738694;28;20237;-59
2023/03/29 02:41:11;;;;;;;0.00;0.00;;;;;;;;;;1743990;28;20298;-58
2023/03/29 02:42:02;;;;;;;0.00;0.00;;;;;;;;;;1742701;28;20568;-59
2023/03/29 02:42:55;;;;;;;0.00;0.00;;;;;;;;;;1743236;28;20785;-59
2023/03/29 02:43:47;;;;;;;0.00;0.00;;;;;;;;;;1742156;28;20207;-59
2023/03/29 02:44:42;;;;;;;0.10;0.10;;;;;;;;;;1744764;28;20199;-59
2023/03/29 02:45:34;;;;;;;0.10;0.10;;;;;;;;;;1740669;28;20766;-59
2023/03/29 02:46:27;;;;;;;0.00;0.00;;;;;;;;;;1745758;28;20700;-59
2023/03/29 02:47:20;;;;;;;0.00;0.00;;;;;;;;;;1740802;28;20581;-59
2023/03/29 02:48:15;;;;;;;0.00;0.00;;;;;;;;;;1739961;28;20264;-60
2023/03/29 02:49:06;;;;;;;0.00;0.00;;;;;;;;;;1742279;28;20249;-60
2023/03/29 02:49:58;;;;;;;0.00;0.00;;;;;;;;;;1742826;28;20571;-60
2023/03/29 02:50:50;;;;;;;0.00;0.00;;;;;;;;;;1740130;28;20706;-60
2023/03/29 02:51:42;;;;;;;0.00;0.00;;;;;;;;;;1744562;28;20665;-60
2023/03/29 02:52:35;;;;;;;0.00;0.00;;;;;;;;;;1739733;28;20227;-60
2023/03/29 02:53:29;;;;;;;0.00;0.00;;;;;;;;;;1740707;28;20233;-60
2023/03/29 02:54:21;;;;;;;0.00;0.00;;;;;;;;;;1743976;28;20682;-60
2023/03/29 02:55:17;;;;;;;0.10;0.10;;;;;;;;;;1739592;28;20202;-59
2023/03/29 02:56:08;;;;;;;0.00;0.00;;;;;;;;;;1744745;28;20214;-59
2023/03/29 02:57:01;;;;;;;0.00;0.00;;;;;;;;;;1742571;28;20237;-60
2023/03/29 02:57:52;;;;;;;0.00;0.00;;;;;;;;;;1739767;28;20707;-60
2023/03/29 02:58:44;;;;;;;0.00;0.00;;;;;;;;;;1744881;28;21953;-60
2023/03/29 02:59:37;;;;;;;0.00;0.00;;;;;;;;;;1743219;28;20195;-60
2023/03/29 03:00:30;;;;;;;0.00;0.00;;;;;;;;;;1740369;28;20286;-60
2023/03/29 03:01:21;;;;;;;0.00;0.00;;;;;;;;;;1740011;28;20199;-59
2023/03/29 03:02:16;;;;;;;0.00;0.00;;;;;;;;;;1739332;28;20207;-58
2023/03/29 03:03:08;;;;;;;0.00;0.00;;;;;;;;;;1767969;22;20218;-61
2023/03/29 03:04:01;;;;;;;0.00;0.00;;;;;;;;;;1749100;28;20202;-61
2023/03/29 03:04:52;;;;;;;0.00;0.00;;;;;;;;;;1753090;28;20220;-60
2023/03/29 03:05:44;;;;;;;0.00;0.00;;;;;;;;;;1746838;28;20727;-60
2023/03/29 03:06:36;;;;;;;0.00;0.00;;;;;;;;;;1747899;28;20219;-60
2023/03/29 03:07:28;;;;;;;0.00;0.00;;;;;;;;;;1746876;28;20260;-61
2023/03/29 03:08:19;;;;;;;0.00;0.00;;;;;;;;;;1753208;28;20216;-61
2023/03/29 03:09:11;;;;;;;0.00;0.00;;;;;;;;;;1753199;28;20300;-61
2023/03/29 03:10:02;;;;;;;0.00;0.00;;;;;;;;;;1753314;28;20218;-61
2023/03/29 03:10:54;;;;;;;0.00;0.00;;;;;;;;;;1744959;28;20226;-61
2023/03/29 03:11:45;;;;;;;0.00;0.00;;;;;;;;;;1747661;28;20263;-61
2023/03/29 03:12:37;;;;;;;0.00;0.00;;;;;;;;;;1750382;28;20289;-61
2023/03/29 03:13:28;;;;;;;0.00;0.00;;;;;;;;;;1755340;28;20222;-61
2023/03/29 03:14:22;;;;;;;0.00;0.00;;;;;;;;;;1751457;28;20214;-61
2023/03/29 03:15:13;;;;;;;0.00;0.00;;;;;;;;;;1749105;28;20210;-61
2023/03/29 03:16:08;;;;;;;0.00;0.00;;;;;;;;;;1749465;28;20561;-61
2023/03/29 03:16:59;;;;;;;0.00;0.00;;;;;;;;;;1753859;28;20579;-61
2023/03/29 03:17:51;;;;;;;0.00;0.00;;;;;;;;;;1754232;28;20221;-61
2023/03/29 03:18:44;;;;;;;0.00;0.00;;;;;;;;;;1756076;28;20264;-61
2023/03/29 03:19:37;;;;;;;0.00;0.00;;;;;;;;;;1749897;28;20565;-61
2023/03/29 03:20:28;;;;;;;0.00;0.00;;;;;;;;;;1746088;28;20299;-61
2023/03/29 03:21:20;;;;;;;0.00;0.00;;;;;;;;;;1747249;28;20202;-62
2023/03/29 03:22:11;;;;;;;0.00;0.00;;;;;;;;;;1747333;28;20211;-61
2023/03/29 03:23:03;;;;;;;0.00;0.00;;;;;;;;;;1757583;28;20221;-61
2023/03/29 03:23:54;;;;;;;0.00;0.00;;;;;;;;;;1754744;28;20209;-61
2023/03/29 03:24:48;;;;;;;0.00;0.00;;;;;;;;;;1751646;28;20306;-61
2023/03/29 03:25:39;;;;;;;0.00;0.00;;;;;;;;;;1745648;28;20268;-61
2023/03/29 03:26:31;;;;;;;0.00;0.00;;;;;;;;;;1746844;28;20287;-61
2023/03/29 03:27:22;;;;;;;0.00;0.00;;;;;;;;;;1746583;28;20207;-62
2023/03/29 03:28:14;;;;;;;0.10;0.10;;;;;;;;;;1752980;28;20227;-61
2023/03/29 03:29:05;;;;;;;0.00;0.00;;;;;;;;;;1753491;28;20269;-62
2023/03/29 03:29:57;;;;;;;0.00;0.00;;;;;;;;;;1752893;28;20259;-62
2023/03/29 03:30:48;;;;;;;0.10;0.10;;;;;;;;;;1746852;28;20238;-62
2023/03/29 03:31:42;;;;;;;0.00;0.00;;;;;;;;;;1751019;28;20288;-62
2023/03/29 03:32:33;;;;;;;0.00;0.00;;;;;;;;;;1747638;28;20244;-62
2023/03/29 03:33:27;;;;;;;0.00;0.00;;;;;;;;;;1756997;28;20691;-62
2023/03/29 03:34:18;;;;;;;0.00;0.00;;;;;;;;;;1753422;28;20311;-62
2023/03/29 03:35:10;;;;;;;0.00;0.00;;;;;;;;;;1753000;28;20233;-63
2023/03/29 03:36:04;;;;;;;0.00;0.00;;;;;;;;;;1745799;28;20662;-62
2023/03/29 03:36:56;;;;;;;0.00;0.00;;;;;;;;;;1748999;28;20260;-62
2023/03/29 03:37:48;;;;;;;0.00;0.00;;;;;;;;;;1751625;28;20286;-63
2023/03/29 03:38:40;;;;;;;0.00;0.00;;;;;;;;;;1755367;28;20240;-62
2023/03/29 03:39:32;;;;;;;0.00;0.00;;;;;;;;;;1749743;28;20638;-62
2023/03/29 03:40:23;;;;;;;0.00;0.00;;;;;;;;;;1749262;28;20238;-62
2023/03/29 03:41:15;;;;;;;0.10;0.10;;;;;;;;;;1746773;28;20609;-62
2023/03/29 03:42:06;;;;;;;0.00;0.00;;;;;;;;;;1748958;28;20770;-62
2023/03/29 03:42:58;;;;;;;0.00;0.00;;;;;;;;;;1754011;28;20704;-62
2023/03/29 03:43:49;;;;;;;0.00;0.00;;;;;;;;;;1755718;28;20210;-62
2023/03/29 03:44:41;;;;;;;0.00;0.00;;;;;;;;;;1749769;28;20213;-62
2023/03/29 03:45:32;;;;;;;0.00;0.00;;;;;;;;;;1746683;28;20319;-62
2023/03/29 03:46:25;;;;;;;0.00;0.00;;;;;;;;;;1746501;28;20214;-62
2023/03/29 03:47:17;;;;;;;0.00;0.00;;;;;;;;;;1748274;28;20737;-62
2023/03/29 03:48:09;;;;;;;0.00;0.00;;;;;;;;;;1757621;28;20612;-62
2023/03/29 03:49:01;;;;;;;0.00;0.00;;;;;;;;;;1752463;28;20296;-62
2023/03/29 03:49:53;;;;;;;0.00;0.00;;;;;;;;;;1749857;28;20208;-62
2023/03/29 03:50:47;;;;;;;0.13;0.13;;;;;;;;;;1743175;28;20380;-62
2023/03/29 03:51:40;;;;;;;0.00;0.00;;;;;;;;;;1748910;28;20676;-62
2023/03/29 03:52:31;;;;;;;0.00;0.00;;;;;;;;;;1753625;28;20214;-61
2023/03/29 03:53:24;;;;;;;0.10;0.10;;;;;;;;;;1757359;28;20221;-62
2023/03/29 03:54:15;;;;;;;0.00;0.00;;;;;;;;;;1752176;28;20218;-61
2023/03/29 03:55:08;;;;;;;0.00;0.00;;;;;;;;;;1753528;28;20904;-61
2023/03/29 03:56:01;;;;;;;0.10;0.10;;;;;;;;;;1747888;28;20226;-62
2023/03/29 03:56:53;;;;;;;0.10;0.10;;;;;;;;;;1746916;28;20283;-61
2023/03/29 03:57:44;;;;;;;0.00;0.00;;;;;;;;;;1750717;28;20197;-62
2023/03/29 03:58:36;;;;;;;0.10;0.10;;;;;;;;;;1753397;28;20194;-62
2023/03/29 03:59:27;;;;;;;0.00;0.00;;;;;;;;;;1751465;28;20238;-61
2023/03/29 04:00:19;;;;;;;0.00;0.00;;;;;;;;;;1750585;28;20207;-62
2023/03/29 04:01:10;;;;;;;0.00;0.00;;;;;;;;;;1747955;28;20283;-62
2023/03/29 04:02:02;;;;;;;0.00;0.00;;;;;;;;;;1753025;28;20322;-62
2023/03/29 04:02:55;;;;;;;0.00;0.00;;;;;;;;;;1756117;28;20209;-62
2023/03/29 04:03:47;;;;;;;0.00;0.00;;;;;;;;;;1755741;28;20208;-62
2023/03/29 04:04:39;;;;;;;0.00;0.00;;;;;;;;;;1748882;28;20206;-62
2023/03/29 04:05:31;;;;;;;0.00;0.00;;;;;;;;;;1746916;28;20230;-62
2023/03/29 04:06:22;;;;;;;0.00;0.00;;;;;;;;;;1748946;28;20207;-62
2023/03/29 04:07:16;;;;;;;0.00;0.00;;;;;;;;;;1747157;28;20222;-62
2023/03/29 04:08:07;;;;;;;0.00;0.00;;;;;;;;;;1756738;28;20205;-62
2023/03/29 04:08:59;;;;;;;0.00;0.00;;;;;;;;;;1752865;28;20206;-62
2023/03/29 04:09:51;;;;;;;0.00;0.00;;;;;;;;;;1751780;28;20300;-62
2023/03/29 04:10:51;;;;;;;0.00;0.00;;;;;;;;;;1744478;28;20593;-62
2023/03/29 04:11:42;;;;;;;0.00;0.00;;;;;;;;;;1748040;28;20209;-62
2023/03/29 04:12:34;;;;;;;0.00;0.00;;;;;;;;;;1747366;28;20249;-61
2023/03/29 04:13:26;;;;;;;0.00;0.00;;;;;;;;;;1756974;28;20383;-62
2023/03/29 04:14:19;;;;;;;0.00;0.00;;;;;;;;;;1752099;28;20233;-62
2023/03/29 04:15:10;;;;;;;0.10;0.10;;;;;;;;;;1752327;28;20209;-64
2023/03/29 04:16:03;;;;;;;0.00;0.00;;;;;;;;;;1744412;28;20334;-62
2023/03/29 04:16:54;;;;;;;0.00;0.00;;;;;;;;;;1748842;28;20214;-62
2023/03/29 04:17:46;;;;;;;0.00;0.00;;;;;;;;;;1750513;28;20202;-62
2023/03/29 04:18:39;;;;;;;0.00;0.00;;;;;;;;;;1753719;28;20202;-62
2023/03/29 04:19:30;;;;;;;0.10;0.10;;;;;;;;;;1753198;28;20213;-62
2023/03/29 04:20:23;;;;;;;0.10;0.10;;;;;;;;;;1746509;28;20221;-62
2023/03/29 04:21:14;;;;;;;0.05;0.05;;;;;;;;;;1752469;28;20259;-62
2023/03/29 04:22:06;;;;;;;0.10;0.10;;;;;;;;;;1746638;28;20213;-62
2023/03/29 04:22:57;;;;;;;0.00;0.00;;;;;;;;;;1753540;28;20209;-61
2023/03/29 04:23:49;;;;;;;0.00;0.00;;;;;;;;;;1754771;28;20662;-62
2023/03/29 04:24:40;;;;;;;0.00;0.00;;;;;;;;;;1749155;28;20233;-63
2023/03/29 04:25:32;;;;;;;0.00;0.00;;;;;;;;;;1745785;28;20273;-62
2023/03/29 04:26:23;;;;;;;0.00;0.00;;;;;;;;;;1751577;28;20209;-62
2023/03/29 04:27:15;;;;;;;0.00;0.00;;;;;;;;;;1746971;28;20212;-62
2023/03/29 04:28:08;;;;;;;0.00;0.00;;;;;;;;;;1756104;28;20921;-62
2023/03/29 04:28:59;;;;;;;0.00;0.00;;;;;;;;;;1752150;28;20205;-62
2023/03/29 04:29:51;;;;;;;0.00;0.00;;;;;;;;;;1751347;28;20294;-62
2023/03/29 04:30:42;;;;;;;0.10;0.10;;;;;;;;;;1748050;28;20708;-62
2023/03/29 04:31:34;;;;;;;0.00;0.00;;;;;;;;;;1748392;28;20306;-62
2023/03/29 04:32:26;;;;;;;0.00;0.00;;;;;;;;;;1746282;28;20256;-62
2023/03/29 04:33:18;;;;;;;0.00;0.00;;;;;;;;;;1757429;28;20627;-62
2023/03/29 04:34:10;;;;;;;0.00;0.00;;;;;;;;;;1751606;28;20685;-62
2023/03/29 04:35:03;;;;;;;0.00;0.00;;;;;;;;;;1751439;28;20661;-62
2023/03/29 04:35:54;;;;;;;0.00;0.00;;;;;;;;;;1743612;28;20851;-62
2023/03/29 04:36:49;;;;;;;0.00;0.00;;;;;;;;;;1745585;28;20198;-61
2023/03/29 04:37:40;;;;;;;0.00;0.00;;;;;;;;;;1754115;28;20245;-62
2023/03/29 04:38:34;;;;;;;0.00;0.00;;;;;;;;;;1755007;28;20668;-61
2023/03/29 04:39:33;;;;;;;0.00;0.00;;;;;;;;;;1751218;28;20656;-62
2023/03/29 04:40:25;;;;;;;0.00;0.00;;;;;;;;;;1743766;28;20219;-62
2023/03/29 04:41:16;;;;;;;0.00;0.00;;;;;;;;;;1745729;28;20223;-61
2023/03/29 04:42:10;;;;;;;0.00;0.00;;;;;;;;;;1752552;28;20297;-61
2023/03/29 04:43:01;;;;;;;0.00;0.00;;;;;;;;;;1756987;28;20243;-62
2023/03/29 04:43:54;;;;;;;0.10;0.10;;;;;;;;;;1754172;28;20206;-61
2023/03/29 04:44:46;;;;;;;0.00;0.00;;;;;;;;;;1749928;28;20199;-62
2023/03/29 04:45:38;;;;;;;0.00;0.00;;;;;;;;;;1744974;28;20236;-62
2023/03/29 04:46:29;;;;;;;0.00;0.00;;;;;;;;;;1746560;28;20217;-62
2023/03/29 04:47:21;;;;;;;0.00;0.00;;;;;;;;;;1745873;28;20305;-62
2023/03/29 04:48:12;;;;;;;0.00;0.00;;;;;;;;;;1757544;28;20263;-61
2023/03/29 04:49:05;;;;;;;0.10;0.10;;;;;;;;;;1753821;28;20209;-62
2023/03/29 04:49:57;;;;;;;0.00;0.00;;;;;;;;;;1752266;28;20213;-61
2023/03/29 04:50:49;;;;;;;0.00;0.00;;;;;;;;;;1743543;28;20237;-62
2023/03/29 04:51:40;;;;;;;0.00;0.00;;;;;;;;;;1745741;28;20206;-62
2023/03/29 04:52:32;;;;;;;0.00;0.00;;;;;;;;;;1746343;28;20206;-62
2023/03/29 04:53:23;;;;;;;0.00;0.00;;;;;;;;;;1757364;28;20595;-62
2023/03/29 04:54:15;;;;;;;0.00;0.00;;;;;;;;;;1752681;28;20604;-62
2023/03/29 04:55:08;;;;;;;0.00;0.00;;;;;;;;;;1752195;28;20209;-61
2023/03/29 04:56:00;;;;;;;0.00;0.00;;;;;;;;;;1742992;28;20247;-62
2023/03/29 04:56:51;;;;;;;0.00;0.00;;;;;;;;;;1746245;28;20213;-61
2023/03/29 04:57:44;;;;;;;0.10;0.10;;;;;;;;;;1748812;28;20203;-62
2023/03/29 04:58:35;;;;;;;0.10;0.10;;;;;;;;;;1754824;28;20234;-62
2023/03/29 04:59:27;;;;;;;0.05;0.05;;;;;;;;;;1750634;28;20624;-61
2023/03/29 05:00:25;;;;;;;0.00;0.00;;;;;;;;;;1750705;28;20689;-62
2023/03/29 05:01:17;;;;;;;0.00;0.00;;;;;;;;;;1746312;28;20260;-62
2023/03/29 05:02:09;;;;;;;0.00;0.00;;;;;;;;;;1747981;28;20915;-62
2023/03/29 05:03:01;;;;;;;0.00;0.00;;;;;;;;;;1752644;28;20202;-62
2023/03/29 05:03:52;;;;;;;0.00;0.00;;;;;;;;;;1750138;28;20211;-62
2023/03/29 05:04:44;;;;;;;0.10;0.10;;;;;;;;;;1753045;28;20518;-62
2023/03/29 05:05:36;;;;;;;0.00;0.00;;;;;;;;;;1748003;28;20336;-62
2023/03/29 05:06:28;;;;;;;0.00;0.00;;;;;;;;;;1760193;28;20210;-62
2023/03/29 05:07:19;;;;;;;0.00;0.00;;;;;;;;;;1746693;28;20231;-62
2023/03/29 05:08:12;;;;;;;0.00;0.00;;;;;;;;;;1756648;28;20233;-62
2023/03/29 05:09:03;;;;;;;0.00;0.00;;;;;;;;;;1751479;28;20245;-62
2023/03/29 05:09:55;;;;;;;0.00;0.00;;;;;;;;;;1751763;28;20202;-61
2023/03/29 05:10:48;;;;;;;0.00;0.00;;;;;;;;;;1747510;28;20233;-61
2023/03/29 05:11:40;;;;;;;0.00;0.00;;;;;;;;;;1752139;28;20201;-61
2023/03/29 05:12:31;;;;;;;0.00;0.00;;;;;;;;;;1748787;28;20202;-62
2023/03/29 05:13:23;;;;;;;0.10;0.10;;;;;;;;;;1751627;28;20229;-62
2023/03/29 05:14:15;;;;;;;0.00;0.00;;;;;;;;;;1751686;28;20288;-61
2023/03/29 05:15:08;;;;;;;0.00;0.00;;;;;;;;;;1750898;28;20632;-62
2023/03/29 05:15:59;;;;;;;0.00;0.00;;;;;;;;;;1747643;28;20225;-62
2023/03/29 05:16:51;;;;;;;0.00;0.00;;;;;;;;;;1752794;28;20194;-62